logo
Search for airport 
image banner adimage banner adimage banner ad
image banner ad

LHFH - Farkashegy

Located in Budakeszi, Hungary

ICAO - LHFH, IATA -

Data provided by Airmate  

General information

Coordinates: N47°29'22" E18°54'36"
Elevation is 705 feet MSL.
Magnetic variation is 3.7° East
View others Airports in Pest

Operational data

Special qualification required
Current time UTC:
Current local time:
METAR: LHBP 162030Z 34004KT CAVOK 28/21 Q1013 NOSIG
TAF: TAF LHBP 161715Z 1618/1718 35006KT CAVOK TEMPO 1618/1702 VRB18G30KT 4000 SHRA TSRA BKN060CB BECMG 1706/1708 05006KT BECMG 1713/1715 35010KT TEMPO 1716/1718 FEW045CB
View NOTAMs / SUP AIP / TFR affecting this airport [VIEW]
Communications frequencies: [VIEW]

Runways:

RWY identifierQFULength (ft)Width (ft)SurfaceLDA (ft)
153281656GRASS
333281656GRASS

Airport contact information

Address: Budakeszi Hungary

Satellite view of LHFH